createdAt,value
2023-02-03T00:00:35.606Z,99805.47
2023-02-03T00:03:04.526Z,99809.02
2023-02-03T00:05:34.247Z,99813.73
2023-02-03T00:08:05.323Z,99814.56
2023-02-03T00:10:35.467Z,99820.63
2023-02-03T00:13:04.195Z,99815.03
2023-02-03T00:15:33.370Z,99813.69
2023-02-03T00:18:01.919Z,99814.19
2023-02-03T00:20:31.138Z,99817.89
2023-02-03T00:23:08.420Z,99817.05
2023-02-03T00:25:38.175Z,99822.80
2023-02-03T00:28:06.914Z,99823.64
2023-02-03T00:30:38.610Z,99817.23
2023-02-03T00:33:07.079Z,99818.59
2023-02-03T00:35:40.395Z,99818.24
2023-02-03T00:38:09.666Z,99823.64
2023-02-03T00:40:38.492Z,99825.66
2023-02-03T00:43:08.310Z,99832.42
2023-02-03T00:45:37.092Z,99825.81
2023-02-03T00:48:06.963Z,99836.28
2023-02-03T00:50:35.974Z,99839.48
2023-02-03T00:53:05.923Z,99833.90
2023-02-03T00:55:34.827Z,99830.84
2023-02-03T00:58:03.719Z,99837.77
2023-02-03T01:00:34.786Z,99832.36
2023-02-03T01:03:04.004Z,99832.36
2023-02-03T01:05:32.361Z,99833.70
2023-02-03T01:08:02.019Z,99836.41
2023-02-03T01:10:31.195Z,99836.25
2023-02-03T01:13:01.866Z,99833.20
2023-02-03T01:15:30.876Z,99832.52
2023-02-03T01:18:01.176Z,99839.11
2023-02-03T01:20:29.910Z,99841.97
2023-02-03T01:22:59.857Z,99838.27
2023-02-03T01:25:30.105Z,99835.06
2023-02-03T01:27:59.462Z,99830.34
2023-02-03T01:30:29.932Z,99826.11
2023-02-03T01:32:59.463Z,99829.31
2023-02-03T01:35:29.870Z,99823.56
2023-02-03T01:37:59.987Z,99831.16
2023-02-03T01:40:29.098Z,99833.68
2023-02-03T01:42:58.291Z,99831.64
2023-02-03T01:45:27.045Z,99828.43
2023-02-03T01:47:56.312Z,99829.97
2023-02-03T01:50:29.513Z,99836.06
2023-02-03T01:53:07.001Z,99830.66
2023-02-03T01:55:38.095Z,99836.09
2023-02-03T05:43:48.356Z,99906.11
2023-02-03T05:46:19.112Z,99903.56
2023-02-03T05:48:48.005Z,99906.77
2023-02-03T05:51:18.152Z,99909.81
2023-02-03T05:53:47.113Z,99913.02
2023-02-03T05:56:15.895Z,99913.55
2023-02-03T05:58:44.796Z,99911.51
2023-02-03T06:01:14.529Z,99912.20
2023-02-03T06:03:46.339Z,99908.50
2023-02-03T06:06:15.967Z,99911.20
2023-02-03T06:08:44.780Z,99909.23
2023-02-03T06:14:00.634Z,99918.72
2023-02-03T06:16:29.419Z,99916.71
2023-02-03T06:19:01.102Z,99912.69
2023-02-03T06:21:30.863Z,99917.44
2023-02-03T06:23:59.582Z,99921.53
2023-02-03T06:26:30.640Z,99916.66
2023-02-03T06:28:59.721Z,99923.27
2023-02-03T06:31:28.977Z,99924.80
2023-02-03T06:33:59.279Z,99928.20
2023-02-03T06:36:28.129Z,99931.25
2023-02-03T06:38:58.924Z,99931.44
2023-02-03T06:41:29.447Z,99940.39
2023-02-03T06:43:59.075Z,99938.05
2023-02-03T06:46:29.614Z,99940.94
2023-02-03T06:48:59.124Z,99940.78
2023-02-03T06:51:28.483Z,99946.88
2023-02-03T06:53:58.904Z,99943.48
2023-02-03T06:56:28.167Z,99952.75
2023-02-03T06:58:58.747Z,99949.70
2023-02-03T07:01:29.668Z,99950.39
2023-02-03T07:03:58.636Z,99951.09
2023-02-03T07:06:28.881Z,99960.55
2023-02-03T07:08:59.962Z,99956.49
2023-02-03T07:11:28.596Z,99959.89
2023-02-03T07:13:57.453Z,99960.43
2023-02-03T07:16:27.678Z,99965.88
2023-02-03T07:18:58.038Z,99959.61
2023-02-03T07:21:28.169Z,99960.62
2023-02-03T07:23:58.755Z,99959.96
2023-02-03T07:26:34.906Z,99961.84
2023-02-03T07:29:04.156Z,99964.05
2023-02-03T07:31:33.568Z,99970.12
2023-02-03T07:34:02.626Z,99973.41
2023-02-03T07:36:33.439Z,99983.14
2023-02-03T07:39:02.671Z,99981.06
2023-02-03T07:41:31.448Z,99980.02
2023-02-03T07:44:00.448Z,99974.92
2023-02-03T07:46:30.316Z,99983.02
2023-02-03T07:49:00.962Z,99979.63
2023-02-03T07:51:30.709Z,99983.69
2023-02-03T07:53:59.527Z,99986.19
2023-02-03T07:56:30.435Z,99986.50
2023-02-03T07:59:00.867Z,99987.66
2023-02-03T08:01:31.637Z,99989.16
2023-02-03T08:04:02.029Z,99997.27
2023-02-03T08:06:31.189Z,99991.81
2023-02-03T08:09:01.464Z,100004.40
2023-02-03T08:11:32.414Z,100004.70
2023-02-03T08:14:01.145Z,100014.81
2023-02-03T08:16:30.225Z,100002.11
2023-02-03T08:18:59.330Z,100006.61
2023-02-03T08:21:28.978Z,100013.52
2023-02-03T08:23:57.723Z,100006.57
2023-02-03T08:26:26.754Z,100010.77
2023-02-03T08:28:55.367Z,100013.63
2023-02-03T08:31:25.531Z,100018.02
2023-02-03T08:33:55.652Z,100019.22
2023-02-03T08:36:25.313Z,100020.07
2023-02-03T08:38:55.911Z,100033.42
2023-02-03T08:41:24.908Z,100030.22
2023-02-03T08:43:55.534Z,100029.57
2023-02-03T08:46:27.088Z,100033.27
2023-02-03T08:48:59.976Z,100032.92
2023-02-03T08:51:30.227Z,100035.58
2023-02-03T08:53:59.115Z,100040.42
2023-02-03T08:56:27.951Z,100040.87
2023-02-03T08:58:56.996Z,100045.23
2023-02-03T09:01:26.080Z,100038.92
2023-02-03T09:03:54.811Z,100041.77
2023-02-03T09:06:26.366Z,100039.92
2023-02-03T09:09:02.655Z,100043.17
2023-02-03T09:11:31.702Z,100036.42
2023-02-03T09:14:00.205Z,100037.63
2023-02-03T09:16:30.855Z,100044.58
2023-02-03T09:19:00.122Z,100040.23
2023-02-03T09:21:35.396Z,100041.13
2023-02-03T09:24:03.169Z,100041.33
2023-02-03T09:26:31.783Z,100041.68
2023-02-03T09:29:01.363Z,100043.23
2023-02-03T09:31:30.447Z,100035.42
2023-02-03T09:34:00.591Z,100035.83
2023-02-03T09:36:29.214Z,100036.07
2023-02-03T09:38:58.694Z,100040.52
2023-02-03T09:41:50.959Z,100030.41
2023-02-03T09:47:03.912Z,100029.29
2023-02-03T09:49:46.938Z,100035.89
2023-02-03T09:52:22.401Z,100038.09
2023-02-03T09:55:25.872Z,100028.64
2023-02-03T09:58:08.718Z,100027.14
2023-02-03T10:00:46.835Z,100033.59
2023-02-03T10:03:26.595Z,100035.94
2023-02-03T10:06:06.732Z,100030.88
2023-02-03T10:08:56.879Z,100032.78
2023-02-03T10:11:53.274Z,100033.48
2023-02-03T10:14:42.555Z,100042.78
2023-02-03T10:17:34.319Z,100040.43
2023-02-03T10:20:21.655Z,100030.97
2023-02-03T10:22:59.850Z,100022.91
2023-02-03T10:25:54.442Z,100025.50
2023-02-03T10:28:30.108Z,100019.09
2023-02-03T10:31:01.264Z,100019.28
2023-02-03T10:33:31.716Z,100017.28
2023-02-03T10:36:14.904Z,100011.83
2023-02-03T10:39:44.107Z,100017.94
2023-02-03T10:42:13.102Z,100017.47
2023-02-03T10:44:51.528Z,100016.00
2023-02-03T10:47:36.278Z,100014.15
2023-02-03T10:50:17.795Z,100018.55
2023-02-03T10:52:46.322Z,100015.00
2023-02-03T10:55:30.971Z,100015.84
2023-02-03T10:58:00.223Z,100010.44
2023-02-03T11:00:33.115Z,100009.28
2023-02-03T11:03:09.091Z,100002.68
2023-02-03T11:05:38.353Z,100006.23
2023-02-03T11:08:17.581Z,99999.97
2023-02-03T11:10:46.481Z,100003.72
2023-02-03T11:13:23.952Z,99997.00
2023-02-03T11:16:02.252Z,99999.23
2023-02-03T11:18:45.789Z,99991.66
2023-02-03T11:21:21.171Z,100003.67
2023-02-03T11:24:21.254Z,99994.87
2023-02-03T11:27:15.397Z,99994.36
2023-02-03T11:29:47.802Z,100005.18
2023-02-03T11:32:26.789Z,100003.33
2023-02-03T11:35:03.084Z,99992.54
2023-02-03T11:37:37.285Z,99993.20
2023-02-03T11:40:15.009Z,99992.20
2023-02-03T11:42:55.417Z,99991.19
2023-02-03T11:45:41.447Z,99987.10
2023-02-03T11:48:36.230Z,99997.22
2023-02-03T11:51:45.302Z,99991.63
2023-02-03T11:54:43.534Z,99984.86
2023-02-03T11:57:19.345Z,99986.53
2023-02-03T12:00:22.707Z,99983.48
2023-02-03T12:02:57.009Z,99979.55
2023-02-03T12:05:56.482Z,99982.41
2023-02-03T12:09:04.645Z,99980.20
2023-02-03T12:11:45.030Z,99982.72
2023-02-03T12:14:35.530Z,99970.02
2023-02-03T12:17:27.659Z,99981.13
2023-02-03T12:20:51.158Z,99972.98
2023-02-03T12:23:40.009Z,99976.31
2023-02-03T12:26:23.912Z,99973.06
2023-02-03T12:29:25.267Z,99978.31
2023-02-03T12:32:34.339Z,99979.13
2023-02-03T12:35:39.975Z,99980.28
2023-02-03T12:38:36.552Z,99983.30
2023-02-03T12:41:10.629Z,99990.70
2023-02-03T12:43:47.711Z,99991.20
2023-02-03T12:46:45.891Z,99990.90
2023-02-03T12:49:30.445Z,99989.59
2023-02-03T12:52:04.703Z,99990.09
2023-02-03T12:54:57.651Z,99988.43
2023-02-03T12:58:07.154Z,99993.87
2023-02-03T13:00:48.019Z,99989.67
2023-02-03T13:03:30.814Z,99991.17
2023-02-03T15:25:05.690Z,100001.77
2023-02-03T15:27:41.658Z,100004.05
2023-02-03T15:30:28.909Z,100003.55
2023-02-03T15:33:22.298Z,100003.91
2023-02-03T15:36:04.579Z,100008.51
2023-02-03T15:38:54.337Z,100004.02
2023-02-03T15:41:25.708Z,100014.52
2023-02-03T15:44:01.551Z,100007.84
2023-02-03T15:46:42.754Z,100009.39
2023-02-03T15:49:26.151Z,100005.84
2023-02-03T15:52:02.018Z,100005.93
2023-02-03T15:54:38.056Z,100008.56
2023-02-03T15:57:21.256Z,100018.80
2023-02-03T16:00:04.468Z,100014.20
2023-02-03T16:02:42.906Z,100015.55
2023-02-03T16:05:35.302Z,100016.75
2023-02-03T16:08:37.779Z,100014.05
2023-02-03T16:11:34.797Z,100016.39
2023-02-03T16:14:07.628Z,100015.40
2023-02-03T16:16:58.924Z,100013.34
2023-02-03T16:19:22.171Z,100014.90
2023-02-03T16:21:55.601Z,100011.06
2023-02-03T16:24:46.085Z,100006.87
2023-02-03T16:27:30.596Z,100010.91
2023-02-03T16:30:32.796Z,100007.72
2023-02-03T16:33:34.066Z,100011.13
2023-02-03T16:36:32.637Z,100018.30
2023-02-03T16:39:25.085Z,100019.16
2023-02-03T16:42:17.121Z,100014.95
2023-02-03T16:45:05.820Z,100006.87
2023-02-03T16:47:57.420Z,100003.52
2023-02-03T16:50:45.673Z,100006.72
2023-02-03T16:53:24.359Z,100006.16
2023-02-03T16:55:55.852Z,100009.44
2023-02-03T16:58:25.761Z,100011.44
2023-02-03T17:00:58.675Z,100012.28
2023-02-03T17:03:28.229Z,100014.84
2023-02-03T17:05:58.294Z,100009.09
2023-02-03T17:08:27.597Z,100008.24
2023-02-03T17:11:06.627Z,100003.14
2023-02-03T17:13:36.694Z,100005.63
2023-02-03T17:16:19.691Z,100002.87
2023-02-03T17:18:49.001Z,100000.67
2023-02-03T17:21:22.980Z,100004.51
2023-02-03T17:23:53.269Z,100010.40
2023-02-03T17:26:22.923Z,100003.30
2023-02-03T17:28:52.176Z,100005.50
2023-02-03T17:31:21.796Z,100003.09
2023-02-03T17:33:51.677Z,100003.24
2023-02-03T17:36:21.768Z,100000.69
2023-02-03T17:55:33.871Z,100000.53
2023-02-03T17:58:02.667Z,100002.94
2023-02-03T18:00:32.555Z,100002.33
2023-02-03T18:03:02.837Z,100005.38
2023-02-03T18:05:32.629Z,100006.58
2023-02-03T18:08:09.250Z,100011.48
2023-02-03T18:10:35.068Z,100014.81
2023-02-03T18:13:05.321Z,100006.27
2023-02-03T18:15:37.126Z,99997.33
2023-02-03T18:18:08.891Z,100003.08
2023-02-03T18:20:38.917Z,100002.94
2023-02-03T18:23:08.648Z,100000.13
2023-02-03T18:25:38.358Z,100000.34
2023-02-03T18:28:08.714Z,100001.69
2023-02-03T18:30:38.830Z,100002.33
2023-02-03T18:33:09.296Z,99997.55
2023-02-03T18:35:39.868Z,99999.88
2023-02-03T18:38:09.316Z,99995.14
2023-02-03T18:40:40.974Z,99989.75
2023-02-03T18:43:10.702Z,99986.91
2023-02-03T18:45:40.962Z,99985.41
2023-02-03T18:48:10.969Z,99987.61
2023-02-03T18:50:44.655Z,99982.36
2023-02-03T18:53:15.956Z,99986.76
2023-02-03T18:55:45.521Z,99990.19
2023-02-03T18:58:15.091Z,99984.52
2023-02-03T19:00:46.568Z,99982.31
2023-02-03T19:03:16.965Z,99984.37
2023-02-03T19:05:48.007Z,99994.80
2023-02-03T19:08:17.908Z,99985.91
2023-02-03T19:10:54.921Z,99989.89
2023-02-03T19:13:24.534Z,99983.15
2023-02-03T19:15:53.670Z,99980.95
2023-02-03T19:18:23.312Z,99984.14
2023-02-03T19:20:52.791Z,99975.14
2023-02-03T19:23:23.944Z,99971.89
2023-02-03T19:25:54.202Z,99974.02
2023-02-03T19:28:30.549Z,99973.95
2023-02-03T19:31:02.909Z,99968.70
2023-02-03T19:33:28.095Z,99971.19
2023-02-03T19:36:00.677Z,99971.40
2023-02-03T19:38:30.658Z,99972.45
2023-02-03T19:41:02.873Z,99968.98
2023-02-03T19:43:32.453Z,99977.13
2023-02-03T19:46:03.157Z,99972.95
2023-02-03T19:48:33.553Z,99976.64
2023-02-03T19:51:04.824Z,99976.84
2023-02-03T19:53:35.120Z,99976.34
2023-02-03T19:56:05.304Z,99978.05
2023-02-03T19:58:35.354Z,99978.61
2023-02-03T20:01:05.918Z,99977.27
2023-02-03T20:03:36.528Z,99982.45
2023-02-03T20:06:08.715Z,99976.55
2023-02-03T20:08:40.292Z,99971.16
2023-02-03T20:11:10.027Z,99974.50
2023-02-03T20:13:42.708Z,99970.04
2023-02-03T20:16:13.120Z,99973.38
2023-02-03T20:18:42.280Z,99975.08
2023-02-03T20:21:11.525Z,99972.73
2023-02-03T20:23:42.483Z,99972.03
2023-02-03T20:26:14.284Z,99970.19
2023-02-03T20:28:45.792Z,99977.42
2023-02-03T20:31:16.524Z,99965.50
2023-02-03T20:33:48.919Z,99968.05
2023-02-03T20:36:18.411Z,99975.43
2023-02-03T20:38:48.714Z,99965.29
2023-02-03T20:41:19.399Z,99970.33
2023-02-03T20:43:49.557Z,99967.63
2023-02-03T20:46:19.922Z,99965.58
2023-02-03T20:48:49.416Z,99966.22
2023-02-03T20:51:20.844Z,99965.38
2023-02-03T20:53:52.772Z,99971.96
2023-02-03T20:56:23.908Z,99968.56
2023-02-03T20:58:53.073Z,99967.36
2023-02-03T21:01:23.583Z,99966.16
2023-02-03T21:04:12.073Z,99967.86
2023-02-03T21:06:43.121Z,99970.55
2023-02-03T21:09:15.813Z,99973.89
2023-02-03T21:11:45.325Z,99979.42
2023-02-03T21:14:28.455Z,99979.06
2023-02-03T21:16:58.220Z,99973.46
2023-02-03T21:19:32.469Z,99977.02
2023-02-03T21:22:19.669Z,99979.84
2023-02-03T21:24:52.572Z,99971.41
2023-02-03T21:27:33.371Z,99971.41
2023-02-03T21:30:07.650Z,99962.97
2023-02-03T21:32:41.012Z,99965.81
2023-02-03T21:35:33.218Z,99975.59
2023-02-03T21:38:05.222Z,99961.41
2023-02-03T21:40:35.099Z,99964.89
2023-02-03T21:43:05.860Z,99969.57
2023-02-03T21:45:42.745Z,99970.92
2023-02-03T21:48:39.719Z,99966.52
2023-02-03T21:51:15.932Z,99960.64
2023-02-03T21:54:00.277Z,99965.17
2023-02-03T21:56:41.312Z,99956.45
2023-02-03T21:59:21.221Z,99968.72
2023-02-03T22:01:50.592Z,99968.22
2023-02-03T22:04:20.043Z,99968.02
2023-02-03T22:06:50.402Z,99970.49
2023-02-03T22:09:22.588Z,99969.78
2023-02-03T22:11:54.303Z,99970.42
2023-02-03T22:14:25.922Z,99971.77
2023-02-03T22:16:56.180Z,99965.39
2023-02-03T22:19:26.099Z,99973.47
2023-02-03T22:21:55.878Z,99969.29
2023-02-03T22:24:26.110Z,99970.78
2023-02-03T22:26:58.111Z,99971.63
2023-02-03T22:29:27.985Z,99969.29
2023-02-03T22:31:57.772Z,99971.98
2023-02-03T22:34:28.021Z,99975.17
2023-02-03T22:36:57.331Z,99976.02
2023-02-03T22:39:27.233Z,99973.55
2023-02-03T22:41:56.653Z,99976.59
2023-02-03T22:44:26.701Z,99975.24
2023-02-03T22:46:57.727Z,99971.06
2023-02-03T22:49:28.790Z,99971.41
2023-02-03T22:51:59.492Z,99965.53
2023-02-03T22:54:30.018Z,99963.97
2023-02-03T22:56:59.379Z,99966.88
2023-02-03T22:59:28.636Z,99965.32
2023-02-03T23:01:58.155Z,99963.19
2023-02-03T23:04:28.938Z,99954.12
2023-02-03T23:07:00.531Z,99950.07
2023-02-03T23:09:29.734Z,99952.63
2023-02-03T23:11:59.960Z,99951.77
2023-02-03T23:14:30.759Z,99950.22
2023-02-03T23:17:00.608Z,99948.52
2023-02-03T23:19:31.314Z,99951.99
2023-02-03T23:22:01.407Z,99955.04
2023-02-03T23:24:31.505Z,99952.34
2023-02-03T23:27:01.684Z,99948.59
2023-02-03T23:29:33.025Z,99953.77
2023-02-03T23:32:02.676Z,99947.11
2023-02-03T23:34:51.169Z,99941.01
2023-02-03T23:37:20.381Z,99947.03
2023-02-03T23:39:51.668Z,99951.21
2023-02-03T23:42:22.168Z,99954.05
2023-02-03T23:44:51.194Z,99949.77
2023-02-03T23:47:20.426Z,99953.94
2023-02-03T23:49:50.613Z,99954.44
2023-02-03T23:52:21.104Z,99954.22
2023-02-03T23:54:50.564Z,99956.20
2023-02-03T23:57:21.555Z,99957.84
2023-02-03T23:59:50.789Z,99958.40
